QFA882 YSSY-YMML
Flight info
| Callsign | QFA882 |
|---|---|
| Flight time | 1h 29m |
| Altitude | 34000 |
| Route | WOL H65 LEECE Q29 ML |
| Aircraft | B738/M-SDE2E3FGHIRWXY/LB1 |
Departure
| Time | 2026-05-07 21:56 |
|---|---|
| Airport | Sydney Kingsford Smith International Airport (YSSY) |
Arrival
| Time | 2026-05-07 23:26 |
|---|---|
| Airport | Melbourne Airport (YMML) |
| Time | Latitude | Longitude | Altitude | Speed | Heading |
|---|---|---|---|---|---|
| 2026-05-07 21:36 | -33.93167 | 151.17969 | 25 ft | 0 kts | 189° |
| 2026-05-07 21:40 | -33.93168 | 151.17969 | 25 ft | 0 kts | 189° |
| 2026-05-07 21:41 | -33.93159 | 151.17970 | 25 ft | 2 kts | 189° |
| 2026-05-07 21:41 | -33.93145 | 151.17973 | 25 ft | 2 kts | 189° |
| 2026-05-07 21:41 | -33.93130 | 151.17976 | 25 ft | 2 kts | 189° |
| 2026-05-07 21:41 | -33.93116 | 151.17982 | 26 ft | 2 kts | 214° |
| 2026-05-07 21:42 | -33.93105 | 151.17995 | 26 ft | 2 kts | 233° |
| 2026-05-07 21:42 | -33.93097 | 151.18010 | 26 ft | 2 kts | 253° |
| 2026-05-07 21:42 | -33.93095 | 151.18028 | 26 ft | 2 kts | 272° |
| 2026-05-07 21:42 | -33.93096 | 151.18037 | 27 ft | 1 kts | 283° |
| 2026-05-07 21:43 | -33.93097 | 151.18042 | 27 ft | 0 kts | 280° |
| 2026-05-07 21:44 | -33.93095 | 151.18031 | 26 ft | 7 kts | 280° |
| 2026-05-07 21:45 | -33.93081 | 151.17935 | 25 ft | 18 kts | 280° |
| 2026-05-07 21:45 | -33.93057 | 151.17769 | 23 ft | 18 kts | 282° |
| 2026-05-07 21:45 | -33.93016 | 151.17659 | 22 ft | 11 kts | 286° |
| 2026-05-07 21:45 | -33.93006 | 151.17580 | 22 ft | 8 kts | 259° |
| 2026-05-07 21:46 | -33.93070 | 151.17525 | 21 ft | 14 kts | 198° |
| 2026-05-07 21:46 | -33.93187 | 151.17541 | 19 ft | 22 kts | 169° |
| 2026-05-07 21:46 | -33.93341 | 151.17580 | 16 ft | 21 kts | 167° |
| 2026-05-07 21:46 | -33.93479 | 151.17584 | 10 ft | 19 kts | 175° |
| 2026-05-07 21:47 | -33.93607 | 151.17616 | 9 ft | 17 kts | 167° |
| 2026-05-07 21:47 | -33.93711 | 151.17676 | 9 ft | 15 kts | 160° |
| 2026-05-07 21:47 | -33.93809 | 151.17702 | 9 ft | 13 kts | 163° |
| 2026-05-07 21:47 | -33.93887 | 151.17773 | 10 ft | 15 kts | 160° |
| 2026-05-07 21:48 | -33.93997 | 151.17802 | 12 ft | 17 kts | 169° |
| 2026-05-07 21:48 | -33.94117 | 151.17833 | 14 ft | 17 kts | 168° |
| 2026-05-07 21:48 | -33.94239 | 151.17866 | 19 ft | 17 kts | 168° |
| 2026-05-07 21:48 | -33.94367 | 151.17899 | 24 ft | 17 kts | 169° |
| 2026-05-07 21:49 | -33.94446 | 151.17909 | 26 ft | 0 kts | 192° |
| 2026-05-07 21:50 | -33.94495 | 151.17886 | 26 ft | 18 kts | 193° |
| 2026-05-07 21:50 | -33.94677 | 151.17923 | 27 ft | 28 kts | 168° |
| 2026-05-07 21:50 | -33.94860 | 151.17969 | 28 ft | 26 kts | 167° |
| 2026-05-07 21:51 | -33.95033 | 151.18016 | 25 ft | 23 kts | 166° |
| 2026-05-07 21:51 | -33.95101 | 151.18118 | 22 ft | 17 kts | 80° |
| 2026-05-07 21:51 | -33.95074 | 151.18268 | 20 ft | 18 kts | 78° |
| 2026-05-07 21:51 | -33.95044 | 151.18440 | 19 ft | 21 kts | 79° |
| 2026-05-07 21:52 | -33.95108 | 151.18539 | 16 ft | 16 kts | 154° |
| 2026-05-07 21:52 | -33.95199 | 151.18634 | 14 ft | 19 kts | 137° |
| 2026-05-07 21:52 | -33.95339 | 151.18726 | 13 ft | 21 kts | 167° |
| 2026-05-07 21:52 | -33.95493 | 151.18767 | 11 ft | 24 kts | 167° |
| 2026-05-07 21:53 | -33.95654 | 151.18808 | 10 ft | 22 kts | 167° |
| 2026-05-07 21:53 | -33.95798 | 151.18845 | 9 ft | 25 kts | 167° |
| 2026-05-07 21:53 | -33.95990 | 151.18896 | 9 ft | 27 kts | 167° |
| 2026-05-07 21:53 | -33.96166 | 151.18941 | 9 ft | 23 kts | 168° |
| 2026-05-07 21:54 | -33.96316 | 151.18979 | 9 ft | 20 kts | 168° |
| 2026-05-07 21:54 | -33.96464 | 151.19019 | 11 ft | 23 kts | 167° |
| 2026-05-07 21:54 | -33.96621 | 151.19060 | 12 ft | 22 kts | 168° |
| 2026-05-07 21:54 | -33.96782 | 151.19069 | 13 ft | 21 kts | 184° |
| 2026-05-07 21:55 | -33.96940 | 151.19096 | 13 ft | 23 kts | 168° |
| 2026-05-07 21:55 | -33.97103 | 151.19144 | 13 ft | 19 kts | 152° |
| 2026-05-07 21:55 | -33.97126 | 151.19263 | 13 ft | 12 kts | 78° |
| 2026-05-07 21:55 | -33.97099 | 151.19350 | 13 ft | 11 kts | 53° |
| 2026-05-07 21:56 | -33.96955 | 151.19351 | 13 ft | 50 kts | 347° |
| 2026-05-07 21:56 | -33.96330 | 151.19192 | 10 ft | 129 kts | 348° |
| 2026-05-07 21:56 | -33.95327 | 151.18957 | 499 ft | 156 kts | 349° |
| 2026-05-07 21:56 | -33.94239 | 151.19029 | 1696 ft | 171 kts | 12° |
| 2026-05-07 21:57 | -33.93307 | 151.19798 | 2574 ft | 176 kts | 52° |
| 2026-05-07 21:57 | -33.92915 | 151.21275 | 2968 ft | 197 kts | 101° |
| 2026-05-07 21:57 | -33.93162 | 151.22803 | 3994 ft | 180 kts | 114° |
| 2026-05-07 21:57 | -33.93493 | 151.24272 | 4599 ft | 198 kts | 104° |
| 2026-05-07 21:58 | -33.93443 | 151.26039 | 4996 ft | 229 kts | 90° |
| 2026-05-07 21:58 | -33.93309 | 151.28117 | 4993 ft | 260 kts | 93° |
| 2026-05-07 21:58 | -33.93262 | 151.30284 | 4839 ft | 257 kts | 95° |
| 2026-05-07 21:58 | -33.93256 | 151.32404 | 4886 ft | 259 kts | 95° |
| 2026-05-07 21:59 | -33.93247 | 151.34654 | 5654 ft | 272 kts | 95° |
| 2026-05-07 21:59 | -33.93238 | 151.36934 | 6547 ft | 282 kts | 96° |
| 2026-05-07 21:59 | -33.93232 | 151.39334 | 7436 ft | 291 kts | 96° |
| 2026-05-07 21:59 | -33.93236 | 151.41771 | 8296 ft | 301 kts | 96° |
| 2026-05-07 22:00 | -33.93238 | 151.44310 | 9215 ft | 309 kts | 95° |
| 2026-05-07 22:00 | -33.93203 | 151.46930 | 10133 ft | 318 kts | 94° |
| 2026-05-07 22:00 | -33.93254 | 151.49628 | 10677 ft | 336 kts | 103° |
| 2026-05-07 22:00 | -33.93911 | 151.52376 | 11111 ft | 350 kts | 123° |
| 2026-05-07 22:01 | -33.95331 | 151.54807 | 11556 ft | 358 kts | 143° |
| 2026-05-07 22:01 | -33.97331 | 151.56526 | 12390 ft | 353 kts | 161° |
| 2026-05-07 22:01 | -33.99627 | 151.57448 | 13187 ft | 350 kts | 179° |
| 2026-05-07 22:01 | -34.01998 | 151.57362 | 14134 ft | 340 kts | 198° |
| 2026-05-07 22:02 | -34.04183 | 151.56422 | 15225 ft | 332 kts | 212° |
| 2026-05-07 22:02 | -34.06016 | 151.54820 | 16063 ft | 333 kts | 228° |
| 2026-05-07 22:02 | -34.07416 | 151.52629 | 17089 ft | 332 kts | 241° |
| 2026-05-07 22:02 | -34.08085 | 151.49985 | 17838 ft | 343 kts | 261° |
| 2026-05-07 22:03 | -34.08239 | 151.47087 | 18739 ft | 344 kts | 259° |
| 2026-05-07 22:03 | -34.08803 | 151.44350 | 19514 ft | 343 kts | 247° |
| 2026-05-07 22:03 | -34.09888 | 151.41798 | 20279 ft | 346 kts | 239° |
| 2026-05-07 22:03 | -34.11242 | 151.39401 | 21067 ft | 349 kts | 235° |
| 2026-05-07 22:04 | -34.12694 | 151.37047 | 21803 ft | 352 kts | 233° |
| 2026-05-07 22:04 | -34.14214 | 151.34724 | 22448 ft | 357 kts | 232° |
| 2026-05-07 22:04 | -34.15804 | 151.32408 | 23132 ft | 360 kts | 232° |
| 2026-05-07 22:04 | -34.17441 | 151.30101 | 23757 ft | 364 kts | 231° |
| 2026-05-07 22:05 | -34.19100 | 151.27805 | 24358 ft | 367 kts | 231° |
| 2026-05-07 22:05 | -34.20789 | 151.25484 | 24960 ft | 370 kts | 231° |
| 2026-05-07 22:05 | -34.22506 | 151.23164 | 25486 ft | 375 kts | 231° |
| 2026-05-07 22:05 | -34.24247 | 151.20821 | 26075 ft | 377 kts | 231° |
| 2026-05-07 22:06 | -34.25998 | 151.18443 | 26595 ft | 380 kts | 231° |
| 2026-05-07 22:06 | -34.27766 | 151.16060 | 27111 ft | 384 kts | 231° |
| 2026-05-07 22:06 | -34.29539 | 151.13676 | 27671 ft | 386 kts | 231° |
| 2026-05-07 22:06 | -34.31336 | 151.11247 | 28102 ft | 390 kts | 231° |
| 2026-05-07 22:07 | -34.33154 | 151.08797 | 28644 ft | 391 kts | 231° |
| 2026-05-07 22:07 | -34.34982 | 151.06337 | 29015 ft | 396 kts | 231° |
| 2026-05-07 22:07 | -34.36816 | 151.03860 | 29557 ft | 397 kts | 231° |
| 2026-05-07 22:07 | -34.38646 | 151.01392 | 30045 ft | 398 kts | 231° |
| 2026-05-07 22:08 | -34.40511 | 150.98885 | 30536 ft | 399 kts | 231° |
| 2026-05-07 22:08 | -34.42354 | 150.96397 | 31039 ft | 399 kts | 231° |
| 2026-05-07 22:08 | -34.44203 | 150.93898 | 31556 ft | 398 kts | 231° |
| 2026-05-07 22:08 | -34.46048 | 150.91422 | 32069 ft | 397 kts | 231° |
| 2026-05-07 22:09 | -34.47897 | 150.88953 | 32596 ft | 395 kts | 232° |
| 2026-05-07 22:09 | -34.49735 | 150.86487 | 33065 ft | 395 kts | 231° |
| 2026-05-07 22:09 | -34.51569 | 150.84016 | 33631 ft | 392 kts | 232° |
| 2026-05-07 22:09 | -34.53387 | 150.81563 | 33993 ft | 392 kts | 232° |
| 2026-05-07 22:10 | -34.55221 | 150.79082 | 34108 ft | 388 kts | 232° |
| 2026-05-07 22:10 | -34.56941 | 150.76645 | 34096 ft | 381 kts | 234° |
| 2026-05-07 22:10 | -34.60178 | 150.71582 | 34103 ft | 377 kts | 236° |
| 2026-05-07 22:11 | -34.63335 | 150.66490 | 34107 ft | 382 kts | 236° |
| 2026-05-07 22:11 | -34.66492 | 150.61282 | 34098 ft | 381 kts | 236° |
| 2026-05-07 22:12 | -34.69621 | 150.56122 | 34107 ft | 379 kts | 237° |
| 2026-05-07 22:12 | -34.72727 | 150.50954 | 34105 ft | 381 kts | 236° |
| 2026-05-07 22:13 | -34.75828 | 150.45776 | 34109 ft | 379 kts | 236° |
| 2026-05-07 22:13 | -34.78952 | 150.40581 | 34120 ft | 381 kts | 236° |
| 2026-05-07 22:14 | -34.82035 | 150.35384 | 34115 ft | 380 kts | 236° |
| 2026-05-07 22:14 | -34.85150 | 150.30136 | 34107 ft | 382 kts | 237° |
| 2026-05-07 22:15 | -34.88259 | 150.24913 | 34102 ft | 381 kts | 236° |
| 2026-05-07 22:15 | -34.91347 | 150.19742 | 34111 ft | 380 kts | 236° |
| 2026-05-07 22:16 | -34.94445 | 150.14500 | 34113 ft | 383 kts | 236° |
| 2026-05-07 22:16 | -34.97557 | 150.09253 | 34110 ft | 382 kts | 236° |
| 2026-05-07 22:17 | -35.00678 | 150.03999 | 34116 ft | 383 kts | 235° |
| 2026-05-07 22:17 | -35.03765 | 149.98755 | 34115 ft | 382 kts | 236° |
| 2026-05-07 22:18 | -35.08420 | 149.90843 | 34093 ft | 383 kts | 236° |
| 2026-05-07 22:19 | -35.11520 | 149.85588 | 34100 ft | 385 kts | 235° |
| 2026-05-07 22:19 | -35.14650 | 149.80260 | 34099 ft | 385 kts | 236° |
| 2026-05-07 22:20 | -35.17748 | 149.74965 | 34103 ft | 385 kts | 235° |
| 2026-05-07 22:20 | -35.20862 | 149.69638 | 34094 ft | 387 kts | 235° |
| 2026-05-07 22:21 | -35.23996 | 149.64302 | 34097 ft | 388 kts | 235° |
| 2026-05-07 22:21 | -35.27131 | 149.58929 | 34102 ft | 388 kts | 234° |
| 2026-05-07 22:22 | -35.30250 | 149.53560 | 34085 ft | 389 kts | 234° |
| 2026-05-07 22:22 | -35.33398 | 149.48164 | 34086 ft | 388 kts | 234° |
| 2026-05-07 22:23 | -35.36535 | 149.42749 | 34090 ft | 395 kts | 234° |
| 2026-05-07 22:23 | -35.39720 | 149.37248 | 34094 ft | 402 kts | 233° |
| 2026-05-07 22:24 | -35.42960 | 149.31662 | 34102 ft | 403 kts | 234° |
| 2026-05-07 22:24 | -35.46221 | 149.26074 | 34118 ft | 402 kts | 234° |
| 2026-05-07 22:25 | -35.49443 | 149.20476 | 34103 ft | 404 kts | 233° |
| 2026-05-07 22:25 | -35.52692 | 149.14827 | 34098 ft | 404 kts | 234° |
| 2026-05-07 22:26 | -35.55947 | 149.09199 | 34096 ft | 406 kts | 233° |
| 2026-05-07 22:26 | -35.59197 | 149.03567 | 34092 ft | 407 kts | 234° |
| 2026-05-07 22:27 | -35.62460 | 148.97887 | 34073 ft | 404 kts | 233° |
| 2026-05-07 22:27 | -35.65693 | 148.92248 | 34076 ft | 405 kts | 233° |
| 2026-05-07 22:28 | -35.68933 | 148.86574 | 34079 ft | 408 kts | 233° |
| 2026-05-07 22:28 | -35.72208 | 148.80847 | 34074 ft | 409 kts | 233° |
| 2026-05-07 22:29 | -35.75464 | 148.75131 | 34077 ft | 406 kts | 233° |
| 2026-05-07 22:29 | -35.78718 | 148.69441 | 34087 ft | 408 kts | 233° |
| 2026-05-07 22:30 | -35.81965 | 148.63728 | 34087 ft | 408 kts | 233° |
| 2026-05-07 22:30 | -35.85209 | 148.58019 | 34089 ft | 409 kts | 233° |
| 2026-05-07 22:31 | -35.88457 | 148.52274 | 34097 ft | 408 kts | 233° |
| 2026-05-07 22:31 | -35.91694 | 148.46542 | 34099 ft | 411 kts | 233° |
| 2026-05-07 22:32 | -35.94962 | 148.40753 | 34103 ft | 410 kts | 233° |
| 2026-05-07 22:32 | -35.98210 | 148.34969 | 34111 ft | 408 kts | 233° |
| 2026-05-07 22:33 | -36.01446 | 148.29184 | 34105 ft | 409 kts | 233° |
| 2026-05-07 22:33 | -36.04690 | 148.23404 | 34108 ft | 410 kts | 233° |
| 2026-05-07 22:34 | -36.07911 | 148.17613 | 34115 ft | 410 kts | 233° |
| 2026-05-07 22:34 | -36.11148 | 148.11780 | 34125 ft | 410 kts | 233° |
| 2026-05-07 22:35 | -36.14403 | 148.05974 | 34156 ft | 410 kts | 232° |
| 2026-05-07 22:35 | -36.17636 | 148.00195 | 34168 ft | 409 kts | 233° |
| 2026-05-07 22:36 | -36.20889 | 147.94373 | 34163 ft | 410 kts | 233° |
| 2026-05-07 22:36 | -36.24113 | 147.88591 | 34168 ft | 412 kts | 232° |
| 2026-05-07 22:37 | -36.27367 | 147.82742 | 34161 ft | 411 kts | 232° |
| 2026-05-07 22:37 | -36.30587 | 147.76927 | 34147 ft | 409 kts | 232° |
| 2026-05-07 22:38 | -36.33808 | 147.71101 | 34150 ft | 411 kts | 232° |
| 2026-05-07 22:38 | -36.37045 | 147.65259 | 34148 ft | 413 kts | 232° |
| 2026-05-07 22:39 | -36.40277 | 147.59372 | 34144 ft | 411 kts | 233° |
| 2026-05-07 22:39 | -36.43491 | 147.53529 | 34145 ft | 411 kts | 232° |
| 2026-05-07 22:40 | -36.46714 | 147.47649 | 34147 ft | 413 kts | 232° |
| 2026-05-07 22:40 | -36.49922 | 147.41801 | 34151 ft | 410 kts | 232° |
| 2026-05-07 22:41 | -36.53136 | 147.35938 | 34157 ft | 411 kts | 232° |
| 2026-05-07 22:41 | -36.54741 | 147.32996 | 33944 ft | 416 kts | 233° |
| 2026-05-07 22:41 | -36.56352 | 147.30035 | 33602 ft | 416 kts | 232° |
| 2026-05-07 22:41 | -36.57961 | 147.27080 | 33201 ft | 411 kts | 232° |
| 2026-05-07 22:42 | -36.59561 | 147.24146 | 32804 ft | 409 kts | 233° |
| 2026-05-07 22:42 | -36.61151 | 147.21237 | 32407 ft | 410 kts | 232° |
| 2026-05-07 22:42 | -36.62767 | 147.18263 | 32002 ft | 413 kts | 232° |
| 2026-05-07 22:42 | -36.64367 | 147.15321 | 31604 ft | 415 kts | 232° |
| 2026-05-07 22:43 | -36.66005 | 147.12303 | 31197 ft | 416 kts | 233° |
| 2026-05-07 22:43 | -36.67606 | 147.09338 | 30796 ft | 417 kts | 232° |
| 2026-05-07 22:43 | -36.69233 | 147.06340 | 30392 ft | 418 kts | 232° |
| 2026-05-07 22:43 | -36.70866 | 147.03336 | 29983 ft | 419 kts | 232° |
| 2026-05-07 22:44 | -36.72498 | 147.00322 | 29570 ft | 420 kts | 233° |
| 2026-05-07 22:44 | -36.74128 | 146.97321 | 29167 ft | 423 kts | 233° |
| 2026-05-07 22:44 | -36.75780 | 146.94279 | 28761 ft | 424 kts | 233° |
| 2026-05-07 22:44 | -36.77430 | 146.91222 | 28356 ft | 426 kts | 233° |
| 2026-05-07 22:45 | -36.79091 | 146.88153 | 27951 ft | 428 kts | 233° |
| 2026-05-07 22:45 | -36.80765 | 146.85063 | 27546 ft | 430 kts | 233° |
| 2026-05-07 22:45 | -36.82412 | 146.82002 | 27149 ft | 433 kts | 233° |
| 2026-05-07 22:45 | -36.84101 | 146.78859 | 26744 ft | 433 kts | 233° |
| 2026-05-07 22:46 | -36.85771 | 146.75769 | 26347 ft | 434 kts | 233° |
| 2026-05-07 22:46 | -36.87463 | 146.72635 | 25927 ft | 435 kts | 233° |
| 2026-05-07 22:46 | -36.89153 | 146.69487 | 25475 ft | 435 kts | 233° |
| 2026-05-07 22:46 | -36.90821 | 146.66377 | 25032 ft | 434 kts | 233° |
| 2026-05-07 22:47 | -36.92496 | 146.63246 | 24592 ft | 429 kts | 233° |
| 2026-05-07 22:47 | -36.94153 | 146.60153 | 24157 ft | 427 kts | 233° |
| 2026-05-07 22:47 | -36.95782 | 146.57101 | 23728 ft | 425 kts | 234° |
| 2026-05-07 22:47 | -36.97421 | 146.54039 | 23295 ft | 422 kts | 233° |
| 2026-05-07 22:48 | -36.99032 | 146.51012 | 22892 ft | 419 kts | 233° |
| 2026-05-07 22:48 | -37.00635 | 146.48001 | 22491 ft | 419 kts | 233° |
| 2026-05-07 22:48 | -37.02262 | 146.44945 | 22084 ft | 417 kts | 233° |
| 2026-05-07 22:48 | -37.03837 | 146.41972 | 21687 ft | 413 kts | 233° |
| 2026-05-07 22:49 | -37.05432 | 146.38969 | 21280 ft | 410 kts | 233° |
| 2026-05-07 22:49 | -37.06990 | 146.36050 | 20884 ft | 408 kts | 233° |
| 2026-05-07 22:49 | -37.08575 | 146.33061 | 20477 ft | 408 kts | 234° |
| 2026-05-07 22:49 | -37.10138 | 146.30113 | 20075 ft | 407 kts | 234° |
| 2026-05-07 22:50 | -37.11694 | 146.27174 | 19675 ft | 403 kts | 234° |
| 2026-05-07 22:50 | -37.13214 | 146.24300 | 19277 ft | 400 kts | 234° |
| 2026-05-07 22:50 | -37.14724 | 146.21440 | 18873 ft | 386 kts | 234° |
| 2026-05-07 22:50 | -37.16172 | 146.18720 | 18471 ft | 363 kts | 233° |
| 2026-05-07 22:51 | -37.17512 | 146.16188 | 18067 ft | 340 kts | 233° |
| 2026-05-07 22:51 | -37.18781 | 146.13773 | 17687 ft | 323 kts | 233° |
| 2026-05-07 22:51 | -37.19996 | 146.11482 | 17295 ft | 312 kts | 233° |
| 2026-05-07 22:51 | -37.21180 | 146.09233 | 16898 ft | 303 kts | 233° |
| 2026-05-07 22:52 | -37.22324 | 146.07062 | 16507 ft | 296 kts | 233° |
| 2026-05-07 22:52 | -37.23452 | 146.04915 | 16111 ft | 293 kts | 233° |
| 2026-05-07 22:52 | -37.24568 | 146.02795 | 15715 ft | 291 kts | 233° |
| 2026-05-07 22:52 | -37.25666 | 146.00702 | 15325 ft | 289 kts | 233° |
| 2026-05-07 22:53 | -37.26780 | 145.98585 | 14953 ft | 287 kts | 233° |
| 2026-05-07 22:53 | -37.27867 | 145.96518 | 14691 ft | 282 kts | 233° |
| 2026-05-07 22:53 | -37.28947 | 145.94458 | 14459 ft | 283 kts | 233° |
| 2026-05-07 22:53 | -37.30029 | 145.92395 | 14230 ft | 285 kts | 233° |
| 2026-05-07 22:54 | -37.31114 | 145.90326 | 13997 ft | 283 kts | 233° |
| 2026-05-07 22:54 | -37.32206 | 145.88260 | 13762 ft | 280 kts | 233° |
| 2026-05-07 22:54 | -37.33264 | 145.86237 | 13533 ft | 279 kts | 233° |
| 2026-05-07 22:54 | -37.34333 | 145.84196 | 13305 ft | 281 kts | 233° |
| 2026-05-07 22:55 | -37.35410 | 145.82152 | 13073 ft | 279 kts | 233° |
| 2026-05-07 22:55 | -37.36468 | 145.80141 | 12846 ft | 278 kts | 233° |
| 2026-05-07 22:55 | -37.37536 | 145.78098 | 12616 ft | 276 kts | 233° |
| 2026-05-07 22:55 | -37.38583 | 145.76090 | 12387 ft | 277 kts | 233° |
| 2026-05-07 22:56 | -37.39632 | 145.74092 | 12158 ft | 275 kts | 232° |
| 2026-05-07 22:56 | -37.40691 | 145.72067 | 11922 ft | 274 kts | 233° |
| 2026-05-07 22:56 | -37.41733 | 145.70073 | 11688 ft | 272 kts | 233° |
| 2026-05-07 22:56 | -37.42759 | 145.68108 | 11460 ft | 272 kts | 233° |
| 2026-05-07 22:57 | -37.43808 | 145.66103 | 11222 ft | 273 kts | 233° |
| 2026-05-07 22:57 | -37.44717 | 145.64027 | 10986 ft | 275 kts | 244° |
| 2026-05-07 22:57 | -37.45065 | 145.61618 | 10749 ft | 285 kts | 263° |
| 2026-05-07 22:57 | -37.44989 | 145.59100 | 10520 ft | 288 kts | 265° |
| 2026-05-07 22:58 | -37.44942 | 145.56604 | 10284 ft | 285 kts | 263° |
| 2026-05-07 22:58 | -37.44914 | 145.54112 | 10047 ft | 286 kts | 263° |
| 2026-05-07 22:58 | -37.44886 | 145.51648 | 9810 ft | 284 kts | 264° |
| 2026-05-07 22:58 | -37.44865 | 145.49176 | 9575 ft | 283 kts | 263° |
| 2026-05-07 22:59 | -37.44835 | 145.46704 | 9336 ft | 281 kts | 264° |
| 2026-05-07 22:59 | -37.44806 | 145.44269 | 9172 ft | 278 kts | 264° |
| 2026-05-07 22:59 | -37.44778 | 145.41830 | 9166 ft | 281 kts | 265° |
| 2026-05-07 22:59 | -37.44465 | 145.39368 | 9169 ft | 292 kts | 281° |
| 2026-05-07 23:00 | -37.43437 | 145.37114 | 9169 ft | 309 kts | 305° |
| 2026-05-07 23:00 | -37.41676 | 145.35471 | 9180 ft | 324 kts | 329° |
| 2026-05-07 23:00 | -37.39484 | 145.34729 | 9181 ft | 334 kts | 353° |
| 2026-05-07 23:00 | -37.37190 | 145.35143 | 9183 ft | 339 kts | 22° |
| 2026-05-07 23:01 | -37.35256 | 145.36786 | 9194 ft | 337 kts | 51° |
| 2026-05-07 23:01 | -37.34018 | 145.39252 | 9197 ft | 328 kts | 75° |
| 2026-05-07 23:01 | -37.33601 | 145.42004 | 9194 ft | 316 kts | 97° |
| 2026-05-07 23:01 | -37.33659 | 145.44725 | 9194 ft | 313 kts | 100° |
| 2026-05-07 23:02 | -37.33706 | 145.47456 | 9190 ft | 315 kts | 98° |
| 2026-05-07 23:02 | -37.33730 | 145.50230 | 9188 ft | 316 kts | 98° |
| 2026-05-07 23:02 | -37.33748 | 145.52982 | 9188 ft | 315 kts | 98° |
| 2026-05-07 23:02 | -37.33771 | 145.55714 | 9187 ft | 315 kts | 99° |
| 2026-05-07 23:03 | -37.33953 | 145.58418 | 9185 ft | 307 kts | 110° |
| 2026-05-07 23:03 | -37.34718 | 145.60808 | 9182 ft | 290 kts | 134° |
| 2026-05-07 23:03 | -37.36184 | 145.62387 | 9192 ft | 273 kts | 161° |
| 2026-05-07 23:03 | -37.37948 | 145.63211 | 9193 ft | 268 kts | 169° |
| 2026-05-07 23:04 | -37.39779 | 145.63606 | 9180 ft | 263 kts | 186° |
| 2026-05-07 23:04 | -37.41487 | 145.62994 | 9176 ft | 258 kts | 210° |
| 2026-05-07 23:04 | -37.42954 | 145.61665 | 9183 ft | 260 kts | 218° |
| 2026-05-07 23:04 | -37.44210 | 145.60011 | 9177 ft | 264 kts | 234° |
| 2026-05-07 23:05 | -37.44857 | 145.57851 | 9175 ft | 275 kts | 256° |
| 2026-05-07 23:05 | -37.44903 | 145.55409 | 9180 ft | 281 kts | 265° |
| 2026-05-07 23:05 | -37.44865 | 145.52960 | 9175 ft | 281 kts | 264° |
| 2026-05-07 23:05 | -37.44854 | 145.50502 | 9178 ft | 281 kts | 264° |
| 2026-05-07 23:06 | -37.44838 | 145.48029 | 9180 ft | 281 kts | 264° |
| 2026-05-07 23:06 | -37.44812 | 145.45609 | 9179 ft | 280 kts | 264° |
| 2026-05-07 23:06 | -37.44790 | 145.43140 | 9180 ft | 280 kts | 264° |
| 2026-05-07 23:06 | -37.44707 | 145.40689 | 9183 ft | 285 kts | 270° |
| 2026-05-07 23:07 | -37.44178 | 145.38242 | 9181 ft | 298 kts | 289° |
| 2026-05-07 23:07 | -37.42955 | 145.36105 | 9184 ft | 311 kts | 309° |
| 2026-05-07 23:07 | -37.41167 | 145.34477 | 9189 ft | 321 kts | 328° |
| 2026-05-07 23:07 | -37.38982 | 145.33650 | 9193 ft | 333 kts | 352° |
| 2026-05-07 23:08 | -37.36681 | 145.33902 | 9196 ft | 340 kts | 16° |
| 2026-05-07 23:08 | -37.34562 | 145.35176 | 9199 ft | 339 kts | 38° |
| 2026-05-07 23:08 | -37.32941 | 145.37259 | 9197 ft | 332 kts | 62° |
| 2026-05-07 23:08 | -37.32042 | 145.39899 | 9198 ft | 324 kts | 84° |
| 2026-05-07 23:09 | -37.31874 | 145.42635 | 9203 ft | 313 kts | 99° |
| 2026-05-07 23:09 | -37.31929 | 145.45383 | 9198 ft | 314 kts | 99° |
| 2026-05-07 23:09 | -37.32021 | 145.48080 | 9189 ft | 309 kts | 107° |
| 2026-05-07 23:09 | -37.32810 | 145.50487 | 9088 ft | 293 kts | 136° |
| 2026-05-07 23:10 | -37.34376 | 145.51933 | 8840 ft | 272 kts | 166° |
| 2026-05-07 23:10 | -37.36171 | 145.52354 | 8601 ft | 262 kts | 182° |
| 2026-05-07 23:10 | -37.38005 | 145.52370 | 8353 ft | 261 kts | 184° |
| 2026-05-07 23:10 | -37.39778 | 145.52101 | 8103 ft | 256 kts | 200° |
| 2026-05-07 23:11 | -37.41332 | 145.50990 | 7852 ft | 258 kts | 219° |
| 2026-05-07 23:11 | -37.42570 | 145.49382 | 7606 ft | 260 kts | 230° |
| 2026-05-07 23:11 | -37.43425 | 145.47371 | 7351 ft | 263 kts | 247° |
| 2026-05-07 23:11 | -37.43947 | 145.45163 | 7101 ft | 263 kts | 250° |
| 2026-05-07 23:12 | -37.44477 | 145.42967 | 6934 ft | 262 kts | 249° |
| 2026-05-07 23:12 | -37.44996 | 145.40861 | 6760 ft | 240 kts | 249° |
| 2026-05-07 23:12 | -37.45468 | 145.38945 | 6610 ft | 226 kts | 249° |
| 2026-05-07 23:12 | -37.45934 | 145.37053 | 6482 ft | 227 kts | 249° |
| 2026-05-07 23:13 | -37.46403 | 145.35138 | 6372 ft | 227 kts | 249° |
| 2026-05-07 23:13 | -37.46838 | 145.33246 | 6239 ft | 227 kts | 255° |
| 2026-05-07 23:13 | -37.46742 | 145.31230 | 6109 ft | 237 kts | 277° |
| 2026-05-07 23:13 | -37.46364 | 145.29217 | 5982 ft | 237 kts | 276° |
| 2026-05-07 23:14 | -37.46053 | 145.27184 | 5852 ft | 234 kts | 274° |
| 2026-05-07 23:14 | -37.45755 | 145.25169 | 5724 ft | 235 kts | 274° |
| 2026-05-07 23:14 | -37.45464 | 145.23148 | 5598 ft | 235 kts | 274° |
| 2026-05-07 23:14 | -37.45173 | 145.21143 | 5472 ft | 233 kts | 274° |
| 2026-05-07 23:15 | -37.44883 | 145.19135 | 5343 ft | 234 kts | 274° |
| 2026-05-07 23:15 | -37.44590 | 145.17117 | 5219 ft | 232 kts | 275° |
| 2026-05-07 23:15 | -37.44427 | 145.15122 | 5092 ft | 227 kts | 265° |
| 2026-05-07 23:15 | -37.44420 | 145.13135 | 4965 ft | 227 kts | 265° |
| 2026-05-07 23:16 | -37.44394 | 145.11144 | 4844 ft | 226 kts | 266° |
| 2026-05-07 23:16 | -37.44366 | 145.09169 | 4718 ft | 227 kts | 266° |
| 2026-05-07 23:16 | -37.44339 | 145.07198 | 4596 ft | 227 kts | 266° |
| 2026-05-07 23:16 | -37.44310 | 145.05226 | 4466 ft | 225 kts | 266° |
| 2026-05-07 23:17 | -37.44278 | 145.03262 | 4339 ft | 225 kts | 266° |
| 2026-05-07 23:17 | -37.44245 | 145.01297 | 4214 ft | 225 kts | 266° |
| 2026-05-07 23:17 | -37.44216 | 144.99330 | 4089 ft | 225 kts | 266° |
| 2026-05-07 23:17 | -37.44185 | 144.97362 | 3962 ft | 224 kts | 266° |
| 2026-05-07 23:18 | -37.44155 | 144.95409 | 3840 ft | 224 kts | 266° |
| 2026-05-07 23:18 | -37.44228 | 144.93463 | 3713 ft | 218 kts | 257° |
| 2026-05-07 23:18 | -37.44526 | 144.91576 | 3599 ft | 217 kts | 256° |
| 2026-05-07 23:18 | -37.44782 | 144.89766 | 3501 ft | 201 kts | 256° |
| 2026-05-07 23:19 | -37.45019 | 144.88104 | 3364 ft | 186 kts | 256° |
| 2026-05-07 23:19 | -37.45240 | 144.86560 | 3238 ft | 172 kts | 255° |
| 2026-05-07 23:19 | -37.45447 | 144.85121 | 3104 ft | 168 kts | 255° |
| 2026-05-07 23:19 | -37.45657 | 144.83658 | 2976 ft | 169 kts | 254° |
| 2026-05-07 23:20 | -37.45861 | 144.82214 | 2926 ft | 165 kts | 255° |
| 2026-05-07 23:20 | -37.46175 | 144.80983 | 2945 ft | 129 kts | 233° |
| 2026-05-07 23:20 | -37.46813 | 144.80354 | 2925 ft | 118 kts | 206° |
| 2026-05-07 23:20 | -37.47659 | 144.80306 | 2963 ft | 127 kts | 180° |
| 2026-05-07 23:21 | -37.48522 | 144.80429 | 2945 ft | 124 kts | 183° |
| 2026-05-07 23:21 | -37.49393 | 144.80557 | 2945 ft | 125 kts | 181° |
| 2026-05-07 23:21 | -37.50273 | 144.80705 | 2941 ft | 129 kts | 181° |
| 2026-05-07 23:21 | -37.51165 | 144.80867 | 2932 ft | 127 kts | 180° |
| 2026-05-07 23:22 | -37.52036 | 144.81027 | 2942 ft | 127 kts | 181° |
| 2026-05-07 23:22 | -37.52924 | 144.81189 | 2904 ft | 128 kts | 180° |
| 2026-05-07 23:22 | -37.53801 | 144.81349 | 2722 ft | 125 kts | 181° |
| 2026-05-07 23:22 | -37.54680 | 144.81509 | 2593 ft | 129 kts | 180° |
| 2026-05-07 23:23 | -37.55569 | 144.81676 | 2401 ft | 129 kts | 181° |
| 2026-05-07 23:23 | -37.56453 | 144.81841 | 2216 ft | 130 kts | 181° |
| 2026-05-07 23:23 | -37.57332 | 144.82002 | 2046 ft | 130 kts | 181° |
| 2026-05-07 23:23 | -37.58236 | 144.82172 | 1895 ft | 136 kts | 180° |
| 2026-05-07 23:24 | -37.59159 | 144.82349 | 1658 ft | 129 kts | 182° |
| 2026-05-07 23:24 | -37.60051 | 144.82509 | 1545 ft | 132 kts | 181° |
| 2026-05-07 23:24 | -37.60981 | 144.82681 | 1330 ft | 133 kts | 180° |
| 2026-05-07 23:24 | -37.61891 | 144.82851 | 1160 ft | 133 kts | 180° |
| 2026-05-07 23:25 | -37.62801 | 144.83020 | 979 ft | 135 kts | 180° |
| 2026-05-07 23:25 | -37.63746 | 144.83195 | 793 ft | 138 kts | 180° |
| 2026-05-07 23:25 | -37.64757 | 144.83380 | 608 ft | 155 kts | 178° |
| 2026-05-07 23:25 | -37.65826 | 144.83583 | 432 ft | 145 kts | 176° |
| 2026-05-07 23:26 | -37.66640 | 144.83710 | 401 ft | 86 kts | 171° |
| 2026-05-07 23:26 | -37.67050 | 144.83878 | 385 ft | 39 kts | 145° |
| 2026-05-07 23:26 | -37.67156 | 144.83980 | 380 ft | 9 kts | 142° |
| 2026-05-07 23:26 | -37.67187 | 144.84015 | 380 ft | 3 kts | 112° |
| 2026-05-07 23:27 | -37.67175 | 144.84044 | 381 ft | 9 kts | 34° |
| 2026-05-07 23:27 | -37.67099 | 144.84041 | 384 ft | 12 kts | 350° |
| 2026-05-07 23:27 | -37.66992 | 144.84023 | 387 ft | 18 kts | 351° |
| 2026-05-07 23:28 | -37.66884 | 144.84001 | 389 ft | 12 kts | 350° |
| 2026-05-07 23:28 | -37.66851 | 144.83993 | 390 ft | 0 kts | 350° |
| 2026-05-07 23:29 | -37.66790 | 144.83983 | 392 ft | 15 kts | 353° |
| 2026-05-07 23:30 | -37.66716 | 144.84058 | 394 ft | 16 kts | 83° |
| 2026-05-07 23:30 | -37.66700 | 144.84212 | 393 ft | 18 kts | 81° |
| 2026-05-07 23:30 | -37.66682 | 144.84375 | 394 ft | 17 kts | 82° |
| 2026-05-07 23:30 | -37.66666 | 144.84512 | 397 ft | 14 kts | 81° |
| 2026-05-07 23:31 | -37.66652 | 144.84622 | 399 ft | 12 kts | 81° |
| 2026-05-07 23:31 | -37.66631 | 144.84752 | 404 ft | 15 kts | 64° |
| 2026-05-07 23:31 | -37.66554 | 144.84840 | 407 ft | 14 kts | 56° |
| 2026-05-07 23:31 | -37.66535 | 144.84963 | 409 ft | 14 kts | 81° |
| 2026-05-07 23:32 | -37.66566 | 144.85060 | 410 ft | 11 kts | 166° |
| 2026-05-07 23:32 | -37.66586 | 144.85136 | 410 ft | 12 kts | 83° |
| 2026-05-07 23:32 | -37.66572 | 144.85255 | 410 ft | 14 kts | 80° |
| 2026-05-07 23:32 | -37.66607 | 144.85352 | 410 ft | 12 kts | 162° |
| 2026-05-07 23:33 | -37.66679 | 144.85358 | 409 ft | 6 kts | 193° |
| 2026-05-07 23:33 | -37.66721 | 144.85326 | 410 ft | 5 kts | 249° |
| 2026-05-07 23:33 | -37.66729 | 144.85281 | 410 ft | 4 kts | 261° |
| 2026-05-07 23:33 | -37.66730 | 144.85266 | 410 ft | 0 kts | 260° |